createdAt,value
2018-04-24T00:08:37.464Z,0
2018-04-24T00:18:36.940Z,0
2018-04-24T00:28:37.053Z,0
2018-04-24T00:38:37.053Z,0
2018-04-24T00:48:36.988Z,0
2018-04-24T00:58:37.037Z,0
2018-04-24T01:08:37.081Z,0
2018-04-24T01:18:51.367Z,0
2018-04-24T01:28:48.804Z,0
2018-04-24T01:38:36.971Z,0
2018-04-24T01:48:37.043Z,0
2018-04-24T01:58:38.743Z,0
2018-04-24T02:08:36.995Z,0
2018-04-24T02:18:37.299Z,0
2018-04-24T02:28:37.095Z,0
2018-04-24T02:38:37.069Z,0
2018-04-24T02:48:37.121Z,0
2018-04-24T02:58:37.116Z,0
2018-04-24T03:08:37.146Z,0
2018-04-24T03:18:37.096Z,0
2018-04-24T03:28:37.146Z,0
2018-04-24T03:38:37.190Z,0
2018-04-24T03:48:37.119Z,0
2018-04-24T03:58:37.097Z,0
2018-04-24T04:08:37.173Z,0
2018-04-24T04:18:37.180Z,5
2018-04-24T04:28:37.247Z,5
2018-04-24T04:38:37.119Z,10
2018-04-24T04:48:37.299Z,10
2018-04-24T04:58:37.223Z,20
2018-04-24T05:08:37.196Z,20
2018-04-24T05:18:37.159Z,25
2018-04-24T05:28:37.301Z,30
2018-04-24T05:38:37.288Z,35
2018-04-24T05:48:37.234Z,35
2018-04-24T05:58:37.287Z,50
2018-04-24T06:08:37.305Z,45
2018-04-24T06:18:37.348Z,50
2018-04-24T06:28:37.386Z,60
2018-04-24T06:38:37.384Z,55
2018-04-24T06:48:38.190Z,85
2018-04-24T06:58:37.290Z,100
2018-04-24T07:08:37.378Z,95
2018-04-24T07:18:37.370Z,135
2018-04-24T07:28:37.758Z,90
2018-04-24T07:38:38.697Z,140
2018-04-24T07:48:38.059Z,145
2018-04-24T07:58:37.458Z,135
2018-04-24T08:08:37.496Z,100
2018-04-24T08:18:37.397Z,130
2018-04-24T08:28:37.375Z,115
2018-04-24T08:38:38.310Z,155
2018-04-24T08:48:38.057Z,150
2018-04-24T08:58:37.579Z,225
2018-04-24T09:08:37.561Z,225
2018-04-24T09:18:37.866Z,165
2018-04-24T09:28:37.458Z,200
2018-04-24T09:38:37.626Z,265
2018-04-24T09:48:37.447Z,155
2018-04-24T09:58:37.461Z,125
2018-04-24T10:08:38.431Z,155
2018-04-24T10:18:37.553Z,165
2018-04-24T10:28:37.468Z,160
2018-04-24T10:38:37.624Z,150
2018-04-24T10:48:37.603Z,180
2018-04-24T10:58:37.606Z,210
2018-04-24T11:08:37.492Z,235
2018-04-24T11:18:37.565Z,285
2018-04-24T11:28:37.636Z,235
2018-04-24T11:38:38.115Z,250
2018-04-24T11:48:37.679Z,185
2018-04-24T11:58:37.633Z,145
2018-04-24T12:08:37.768Z,260
2018-04-24T12:18:37.827Z,225
2018-04-24T12:28:37.623Z,195
2018-04-24T12:38:37.615Z,175
2018-04-24T12:48:37.754Z,115
2018-04-24T12:58:37.881Z,120
2018-04-24T13:08:37.744Z,105
2018-04-24T13:18:37.868Z,100
2018-04-24T13:28:37.737Z,95
2018-04-24T13:38:37.694Z,60
2018-04-24T13:48:37.719Z,75
2018-04-24T13:58:37.696Z,90
2018-04-24T14:08:37.757Z,95
2018-04-24T14:18:37.882Z,90
2018-04-24T14:28:38.651Z,70
2018-04-24T14:38:38.073Z,115
2018-04-24T14:48:37.991Z,105
2018-04-24T14:58:37.766Z,140
2018-04-24T15:08:37.779Z,125
2018-04-24T15:18:37.777Z,140
2018-04-24T15:28:37.798Z,160
2018-04-24T15:38:37.920Z,145
2018-04-24T15:48:37.851Z,170
2018-04-24T15:58:38.003Z,155
2018-04-24T16:08:37.824Z,160
2018-04-24T16:18:37.840Z,130
2018-04-24T16:28:38.550Z,105
2018-04-24T16:38:37.878Z,105
2018-04-24T16:48:37.973Z,85
2018-04-24T16:58:37.927Z,75
2018-04-24T17:08:37.863Z,65
2018-04-24T17:18:38.033Z,50
2018-04-24T17:28:38.228Z,45
2018-04-24T17:38:38.468Z,30
2018-04-24T17:48:38.892Z,15
2018-04-24T17:58:38.085Z,15
2018-04-24T18:08:38.218Z,5
2018-04-24T18:18:38.000Z,10
2018-04-24T18:28:38.076Z,0
2018-04-24T18:38:38.033Z,0
2018-04-24T18:48:38.705Z,0
2018-04-24T18:58:38.148Z,0
2018-04-24T19:08:38.030Z,0
2018-04-24T19:19:14.492Z,0
2018-04-24T19:28:38.075Z,0
2018-04-24T19:38:38.027Z,0
2018-04-24T19:48:38.097Z,0
2018-04-24T19:58:38.099Z,0
2018-04-24T20:08:38.083Z,0
2018-04-24T20:18:38.217Z,0
2018-04-24T20:28:38.164Z,0
2018-04-24T20:38:38.202Z,0
2018-04-24T20:48:38.119Z,0
2018-04-24T20:58:38.760Z,0
2018-04-24T21:08:38.227Z,0
2018-04-24T21:18:38.195Z,0
2018-04-24T21:28:38.457Z,0
2018-04-24T21:38:38.126Z,0
2018-04-24T21:48:38.163Z,0
2018-04-24T21:58:38.368Z,0
2018-04-24T22:08:38.564Z,0
2018-04-24T22:18:38.678Z,0
2018-04-24T22:28:38.196Z,0
2018-04-24T22:38:38.224Z,0
2018-04-24T22:48:38.407Z,0
2018-04-24T22:58:38.287Z,0
2018-04-24T23:08:38.169Z,0
2018-04-24T23:18:38.192Z,0
2018-04-24T23:28:38.193Z,0
2018-04-24T23:38:38.200Z,0
2018-04-24T23:48:38.276Z,0
2018-04-24T23:58:38.236Z,0
